createdAt,value
2018-12-10T02:50:55.948Z,105.58
2018-12-10T02:53:53.341Z,108.10
2018-12-10T02:56:50.255Z,107.32
2018-12-10T02:59:45.855Z,105.72
2018-12-10T03:02:42.178Z,110.57
2018-12-10T03:05:38.649Z,109.07
2018-12-10T03:08:35.292Z,109.20
2018-12-10T03:11:31.724Z,110.85
2018-12-10T03:14:27.654Z,106.52
2018-12-10T03:17:23.976Z,105.65
2018-12-10T03:20:19.731Z,106.70
2018-12-10T03:23:16.146Z,102.17
2018-12-10T03:26:15.841Z,103.38
2018-12-10T03:29:12.603Z,102.42
2018-12-10T03:32:08.678Z,105.22
2018-12-10T03:35:11.903Z,107.50
2018-12-10T03:38:11.842Z,100.75
2018-12-10T03:41:08.663Z,105.03
2018-12-10T03:44:04.531Z,121.15
2018-12-10T03:47:00.783Z,123.45
2018-12-10T03:49:56.720Z,128.80
2018-12-10T03:52:52.649Z,132.60
2018-12-10T03:55:48.176Z,141.70
2018-12-10T03:58:43.810Z,140.68
2018-12-10T04:01:42.636Z,142.32
2018-12-10T04:04:36.908Z,143.70
2018-12-10T04:07:33.493Z,138.82
2018-12-10T04:10:29.467Z,137.22
2018-12-10T04:13:25.837Z,141.15
2018-12-10T04:16:25.933Z,143.07
2018-12-10T04:19:22.669Z,139.32
2018-12-10T04:22:18.893Z,140.25
2018-12-10T04:25:15.828Z,143.02
2018-12-10T04:28:12.746Z,140.28
2018-12-10T04:31:09.221Z,138.00
2018-12-10T04:34:04.927Z,140.43
2018-12-10T04:37:01.043Z,134.63
2018-12-10T04:39:57.302Z,138.95
2018-12-10T04:42:53.621Z,140.85
2018-12-10T04:45:50.460Z,143.93
2018-12-10T04:48:47.103Z,150.93
2018-12-10T04:51:44.074Z,149.80
2018-12-10T04:54:40.084Z,153.72
2018-12-10T04:57:36.303Z,148.82
2018-12-10T05:00:33.370Z,143.25
2018-12-10T05:03:29.903Z,142.28
2018-12-10T05:06:26.024Z,142.93
2018-12-10T05:09:22.117Z,137.28
2018-12-10T05:12:18.519Z,138.47
2018-12-10T05:15:16.165Z,137.72
2018-12-10T05:18:13.025Z,133.03
2018-12-10T05:21:17.641Z,135.52
2018-12-10T05:24:25.754Z,127.35
2018-12-10T05:27:42.997Z,126.97
2018-12-10T05:30:40.362Z,148.17
2018-12-10T05:33:43.049Z,137.28
2018-12-10T05:36:44.389Z,116.95
2018-12-10T05:39:49.827Z,121.67
2018-12-10T05:42:56.990Z,126.18
2018-12-10T05:46:28.264Z,117.87
2018-12-10T05:49:36.299Z,125.47
2018-12-10T05:52:39.538Z,117.20
2018-12-10T05:55:42.947Z,108.60
2018-12-10T05:58:40.880Z,97.67
2018-12-10T06:01:38.549Z,98.17
2018-12-10T06:04:36.517Z,101.10
2018-12-10T06:07:33.308Z,102.02
2018-12-10T06:10:31.989Z,90.57
2018-12-10T06:13:31.964Z,92.85
2018-12-10T06:16:29.952Z,93.40
2018-12-10T06:19:26.663Z,93.97
2018-12-10T06:22:25.627Z,94.60
2018-12-10T06:25:24.225Z,87.45
2018-12-10T06:28:21.158Z,87.85
2018-12-10T06:31:18.237Z,90.15
2018-12-10T06:34:18.118Z,86.72
2018-12-10T06:37:19.523Z,86.32
2018-12-10T06:40:21.911Z,86.37
2018-12-10T06:43:20.549Z,90.97
2018-12-10T06:46:24.625Z,84.05
2018-12-10T06:49:18.027Z,87.08
2018-12-10T06:52:16.045Z,84.80
2018-12-10T06:55:13.661Z,86.00
2018-12-10T06:58:12.460Z,89.80
2018-12-10T07:04:35.804Z,86.30
2018-12-10T07:07:40.281Z,84.45
2018-12-10T07:10:42.375Z,82.00
2018-12-10T07:13:42.615Z,81.92
2018-12-10T07:16:42.919Z,78.28
2018-12-10T07:19:40.082Z,79.27
2018-12-10T07:22:37.474Z,78.45
2018-12-10T07:25:34.712Z,78.00
2018-12-10T07:28:35.430Z,77.17
2018-12-10T07:31:36.169Z,76.82
2018-12-10T07:34:35.813Z,78.87
2018-12-10T07:37:32.599Z,76.70
2018-12-10T07:40:28.597Z,76.00
2018-12-10T07:43:54.072Z,76.85
2018-12-10T07:46:54.567Z,76.45
2018-12-10T07:49:55.177Z,79.60
2018-12-10T07:52:51.688Z,81.67
2018-12-10T07:55:51.351Z,87.70
2018-12-10T07:58:47.715Z,89.28
2018-12-10T08:01:44.503Z,93.50
2018-12-10T08:04:41.690Z,96.72
2018-12-10T08:07:39.105Z,97.27
2018-12-10T08:10:35.050Z,95.05
2018-12-10T08:13:43.015Z,96.72
2018-12-10T08:16:42.465Z,99.55
2018-12-10T08:19:41.620Z,102.78
2018-12-10T08:22:45.962Z,102.62
2018-12-10T08:25:42.882Z,105.20
2018-12-10T08:28:41.623Z,99.92
2018-12-10T08:31:44.549Z,96.32
2018-12-10T08:34:41.514Z,101.75
2018-12-10T08:37:36.760Z,102.72
2018-12-10T08:40:32.717Z,102.80
2018-12-10T08:43:30.095Z,101.00
2018-12-10T08:46:26.409Z,101.07
2018-12-10T08:49:22.554Z,109.40
2018-12-10T08:52:20.731Z,107.60
2018-12-10T08:55:21.895Z,107.92
2018-12-10T08:58:31.217Z,112.45
2018-12-10T09:01:27.752Z,114.30
2018-12-10T09:04:24.604Z,116.67
2018-12-10T09:07:22.166Z,119.08
2018-12-10T09:10:47.706Z,113.10
2018-12-10T09:13:48.149Z,108.95
2018-12-10T09:16:47.116Z,107.50
2018-12-10T09:19:45.862Z,107.78
2018-12-10T09:22:43.799Z,100.58
2018-12-10T09:25:42.254Z,84.80
2018-12-10T09:29:26.181Z,80.95
2018-12-10T09:32:56.312Z,91.87
2018-12-10T09:35:59.835Z,85.32
2018-12-10T09:39:09.478Z,75.03
2018-12-10T09:42:08.369Z,71.62
2018-12-10T09:45:05.424Z,68.78
2018-12-10T09:48:06.260Z,64.72
2018-12-10T09:51:49.356Z,64.37
2018-12-10T09:54:57.299Z,62.30
2018-12-10T09:57:56.222Z,52.75
2018-12-10T10:01:04.717Z,37.42
2018-12-10T10:04:00.712Z,43.33
2018-12-10T10:06:58.403Z,45.23
2018-12-10T10:09:55.136Z,35.65
2018-12-10T10:12:52.115Z,34.43
2018-12-10T10:15:48.250Z,35.78
2018-12-10T10:18:45.370Z,36.45
2018-12-10T10:25:54.655Z,35.78
2018-12-10T10:28:51.074Z,37.10
2018-12-10T10:31:47.932Z,34.25
2018-12-10T10:34:50.188Z,37.33
2018-12-10T10:37:48.730Z,37.63
2018-12-10T10:40:50.666Z,43.40
2018-12-10T10:43:48.165Z,39.15
2018-12-10T10:46:48.392Z,36.63
2018-12-10T10:49:48.866Z,37.15
2018-12-10T10:52:47.286Z,40.98
2018-12-10T10:55:46.157Z,44.60
2018-12-10T10:58:46.213Z,40.12
2018-12-10T11:02:23.899Z,38.17
2018-12-10T11:05:45.471Z,38.17
2018-12-10T11:08:48.128Z,39.08
2018-12-10T11:11:48.587Z,42.00
2018-12-10T11:14:51.873Z,39.88
2018-12-10T11:17:52.783Z,39.70
2018-12-10T11:20:49.582Z,39.50
2018-12-10T11:23:48.775Z,44.23
2018-12-10T11:26:49.833Z,43.33
2018-12-10T11:29:49.802Z,44.45
2018-12-10T11:32:43.381Z,42.55
2018-12-10T11:35:42.695Z,42.48
2018-12-10T11:38:39.938Z,42.50
2018-12-10T11:41:38.185Z,43.17
2018-12-10T11:44:43.613Z,51.25
2018-12-10T11:47:45.862Z,49.33
2018-12-10T11:50:47.201Z,46.92
2018-12-10T11:53:45.281Z,40.00
2018-12-10T11:56:44.976Z,41.15
2018-12-10T11:59:42.082Z,42.27
2018-12-10T12:02:40.314Z,47.08
2018-12-10T12:05:39.322Z,46.30
2018-12-10T12:08:37.874Z,46.50
2018-12-10T12:11:35.264Z,43.40
2018-12-10T12:14:36.342Z,43.50
2018-12-10T12:17:37.063Z,44.65
2018-12-10T12:20:34.873Z,49.25
2018-12-10T12:23:31.926Z,49.33
2018-12-10T12:26:28.556Z,46.65
2018-12-10T12:29:24.355Z,50.03
2018-12-10T12:32:20.612Z,49.13
2018-12-10T12:35:16.310Z,46.45
2018-12-10T12:38:13.573Z,48.68
2018-12-10T12:41:12.238Z,47.85
2018-12-10T12:44:08.038Z,53.23
2018-12-10T12:47:03.905Z,56.08
2018-12-10T12:50:11.368Z,56.13
2018-12-10T12:53:08.649Z,57.58
2018-12-10T12:56:04.492Z,57.13
2018-12-10T12:59:00.283Z,59.60
2018-12-10T13:01:56.232Z,61.15
2018-12-10T13:04:52.128Z,64.92
2018-12-10T13:07:48.149Z,69.75
2018-12-10T13:10:44.569Z,69.82
2018-12-10T13:13:41.341Z,69.77
2018-12-10T13:16:37.807Z,69.27
2018-12-10T13:19:36.986Z,77.15
2018-12-10T13:22:33.318Z,81.22
2018-12-10T13:25:29.651Z,78.10
2018-12-10T13:28:28.666Z,79.55
2018-12-10T13:31:21.995Z,76.57
2018-12-10T13:34:18.646Z,80.00
2018-12-10T13:37:14.912Z,80.05
2018-12-10T13:40:11.605Z,76.47
2018-12-10T13:43:07.275Z,81.30
2018-12-10T13:46:03.109Z,79.42
2018-12-10T13:48:59.607Z,81.53
2018-12-10T13:51:55.410Z,80.75
2018-12-10T13:54:51.223Z,92.00
2018-12-10T13:57:47.494Z,87.75
2018-12-10T14:00:43.753Z,86.32
2018-12-10T14:03:39.652Z,84.75
2018-12-10T14:06:35.919Z,79.25
2018-12-10T14:09:32.016Z,79.72
2018-12-10T14:12:31.087Z,79.67
2018-12-10T14:15:28.217Z,78.45
2018-12-10T14:18:24.537Z,78.40
2018-12-10T14:21:20.869Z,95.57
2018-12-10T14:24:17.061Z,121.33
2018-12-10T14:27:13.287Z,112.17
2018-12-10T14:30:13.096Z,92.02
2018-12-10T14:33:09.124Z,110.00
2018-12-10T14:36:05.031Z,111.28
2018-12-10T14:39:00.858Z,116.55
2018-12-10T14:41:58.024Z,117.25
2018-12-10T14:44:54.205Z,100.75
2018-12-10T14:47:50.422Z,99.28
2018-12-10T14:50:46.227Z,106.80
2018-12-10T14:53:42.049Z,121.22
2018-12-10T14:56:38.010Z,111.42
2018-12-10T14:59:34.460Z,101.97
2018-12-10T15:02:31.193Z,96.32
2018-12-10T15:05:27.459Z,95.50
2018-12-10T15:08:24.268Z,93.50
2018-12-10T15:11:21.033Z,85.65
2018-12-10T15:14:20.411Z,79.07
2018-12-10T15:17:14.492Z,74.95
2018-12-10T15:20:20.296Z,77.25
2018-12-10T15:23:17.364Z,76.10
2018-12-10T15:26:13.911Z,73.83
2018-12-10T15:29:10.532Z,73.80
2018-12-10T15:32:07.935Z,73.67
2018-12-10T15:35:04.931Z,67.42
2018-12-10T15:38:01.612Z,70.75
2018-12-10T15:40:59.043Z,69.12
2018-12-10T15:43:56.262Z,71.37
2018-12-10T15:47:01.641Z,77.53
2018-12-10T15:49:58.819Z,84.10
2018-12-10T15:52:57.001Z,86.75
2018-12-10T15:55:53.819Z,84.87
2018-12-10T15:58:50.524Z,85.17
2018-12-10T16:01:47.552Z,86.70
2018-12-10T16:04:43.604Z,85.38
2018-12-10T16:07:41.240Z,83.90
2018-12-10T16:10:38.238Z,79.50
2018-12-10T16:13:35.417Z,79.80
2018-12-10T16:16:32.919Z,82.85
2018-12-10T16:19:29.270Z,83.17
2018-12-10T16:22:25.615Z,84.85
2018-12-10T16:25:22.545Z,83.62
2018-12-10T16:28:19.266Z,86.08
2018-12-10T16:31:17.429Z,86.72
2018-12-10T16:34:14.892Z,87.42
2018-12-10T16:37:12.117Z,87.90
2018-12-10T16:40:08.793Z,88.10
2018-12-10T16:43:06.166Z,86.15
2018-12-10T16:46:03.524Z,87.45
2018-12-10T16:49:01.767Z,85.30
2018-12-10T16:52:03.438Z,84.05
2018-12-10T16:54:56.647Z,82.88
2018-12-10T16:57:53.634Z,83.30
2018-12-10T17:00:50.459Z,83.15
2018-12-10T17:03:47.335Z,83.85
2018-12-10T17:06:44.054Z,84.22
2018-12-10T17:09:41.662Z,81.17
2018-12-10T17:12:38.285Z,81.70
2018-12-10T17:15:35.062Z,83.00
2018-12-10T17:18:32.056Z,85.83
2018-12-10T17:21:29.108Z,85.12
2018-12-10T17:24:28.445Z,82.10
2018-12-10T17:27:24.984Z,77.95
2018-12-10T17:30:21.912Z,78.42
2018-12-10T17:33:18.596Z,81.30
2018-12-10T17:36:16.336Z,81.57
2018-12-10T17:39:16.060Z,83.40
2018-12-10T17:42:13.194Z,83.65
2018-12-10T17:45:12.470Z,81.45
2018-12-10T17:48:09.455Z,83.82
2018-12-10T17:51:06.829Z,81.85
2018-12-10T17:54:03.636Z,82.05
2018-12-10T17:57:01.448Z,81.20
2018-12-10T17:59:58.238Z,81.70
2018-12-10T18:02:54.786Z,81.45
2018-12-10T18:05:51.656Z,81.30
2018-12-10T18:08:48.072Z,81.87
2018-12-10T18:11:44.444Z,81.90
2018-12-10T18:14:40.946Z,86.97
2018-12-10T18:17:37.698Z,85.12
2018-12-10T18:20:34.464Z,89.55
2018-12-10T18:23:30.919Z,91.82
2018-12-10T18:26:27.639Z,92.80
2018-12-10T18:29:24.211Z,90.07
2018-12-10T18:32:20.750Z,88.20
2018-12-10T18:35:17.819Z,91.22
2018-12-10T18:38:15.106Z,93.25
2018-12-10T18:41:15.023Z,93.75
2018-12-10T18:44:11.899Z,92.92
2018-12-10T18:47:09.642Z,100.10
2018-12-10T18:50:06.521Z,116.22
2018-12-10T18:53:03.528Z,116.05
2018-12-10T18:55:59.734Z,114.25
2018-12-10T18:58:56.499Z,113.42
2018-12-10T19:01:52.740Z,120.72
2018-12-10T19:04:49.263Z,130.95
2018-12-10T19:07:45.636Z,127.72
2018-12-10T19:10:42.378Z,125.62
2018-12-10T19:13:39.246Z,128.50
2018-12-10T19:16:35.627Z,127.87
2018-12-10T19:19:31.643Z,131.32
2018-12-10T19:22:28.523Z,132.45
2018-12-10T19:25:24.638Z,133.90
2018-12-10T19:28:21.002Z,135.45
2018-12-10T19:31:17.127Z,130.82
2018-12-10T19:34:13.342Z,123.78
2018-12-10T19:37:12.973Z,126.40
2018-12-10T19:40:09.217Z,131.40
2018-12-10T19:43:05.830Z,131.18
2018-12-10T19:46:02.502Z,130.72
2018-12-10T19:48:59.343Z,130.37
2018-12-10T19:51:56.051Z,128.68
2018-12-10T19:54:52.961Z,123.75
2018-12-10T19:57:49.194Z,124.87
2018-12-10T20:00:45.798Z,123.80
2018-12-10T20:03:42.262Z,126.00
2018-12-10T20:06:56.976Z,124.82
2018-12-10T20:09:53.797Z,124.70
2018-12-10T20:12:50.307Z,128.80
2018-12-10T20:15:46.541Z,134.75
2018-12-10T20:18:43.113Z,128.97
2018-12-10T20:21:43.549Z,130.12
2018-12-10T20:24:36.507Z,138.47
2018-12-10T20:27:33.849Z,133.40
2018-12-10T20:30:30.320Z,131.72
2018-12-10T20:33:27.000Z,130.15
2018-12-10T20:36:23.606Z,127.35
2018-12-10T20:39:19.745Z,126.65
2018-12-10T20:42:16.267Z,126.72
2018-12-10T20:45:18.368Z,126.33
2018-12-10T20:48:14.833Z,121.15
2018-12-10T20:51:11.561Z,122.75
2018-12-10T20:54:07.871Z,124.47
2018-12-10T20:57:07.777Z,121.17
2018-12-10T21:00:04.242Z,122.47
2018-12-10T21:03:01.036Z,121.85
2018-12-10T21:06:14.179Z,120.67
2018-12-10T21:09:12.066Z,118.17
2018-12-10T21:12:08.578Z,115.62
2018-12-10T21:15:04.898Z,118.90
2018-12-10T21:18:01.114Z,117.13
2018-12-10T21:20:57.283Z,114.62
2018-12-10T21:23:54.659Z,113.45
2018-12-10T21:26:51.130Z,111.30
2018-12-10T21:29:47.945Z,112.35
2018-12-10T21:32:47.798Z,109.30
2018-12-10T21:35:47.441Z,109.57
2018-12-10T21:38:45.607Z,112.15
2018-12-10T21:41:40.913Z,114.25
2018-12-10T21:44:37.066Z,118.55
2018-12-10T21:47:34.158Z,117.40
2018-12-10T21:50:30.294Z,105.80
2018-12-10T21:53:27.116Z,104.75
2018-12-10T21:56:23.214Z,102.17
2018-12-10T21:59:20.692Z,101.53
2018-12-10T22:02:17.605Z,101.62
2018-12-10T22:05:14.002Z,103.00
2018-12-10T22:08:10.632Z,99.20
2018-12-10T22:11:07.018Z,101.78
2018-12-10T22:14:08.434Z,98.17
2018-12-10T22:17:04.837Z,99.47
2018-12-10T22:20:01.362Z,96.32
2018-12-10T22:22:57.819Z,96.15
2018-12-10T22:25:54.354Z,90.55
2018-12-10T22:28:51.006Z,87.97
2018-12-10T22:31:47.544Z,106.95
2018-12-10T22:34:43.844Z,107.97
2018-12-10T22:37:40.124Z,120.02
2018-12-10T22:40:37.088Z,117.75
2018-12-10T22:43:33.697Z,124.65
2018-12-10T22:46:30.346Z,147.35
2018-12-10T22:49:29.600Z,141.15
2018-12-10T22:52:26.188Z,155.03
2018-12-10T22:55:22.560Z,182.82
2018-12-10T22:58:18.951Z,191.10
2018-12-10T23:01:15.896Z,185.20
2018-12-10T23:04:15.002Z,182.27
2018-12-10T23:07:11.293Z,167.80
2018-12-10T23:10:07.886Z,160.45
2018-12-10T23:13:07.565Z,151.37
2018-12-10T23:16:04.007Z,146.00
2018-12-10T23:19:00.249Z,147.00
2018-12-10T23:22:02.026Z,147.40
2018-12-10T23:24:56.675Z,145.43
2018-12-10T23:27:53.427Z,147.20
2018-12-10T23:30:49.474Z,147.17
2018-12-10T23:33:45.826Z,156.25
2018-12-10T23:36:42.534Z,162.88
2018-12-10T23:39:39.455Z,165.92
2018-12-10T23:42:36.226Z,161.18
2018-12-10T23:45:32.855Z,159.15
2018-12-10T23:48:28.953Z,156.30
2018-12-10T23:51:25.294Z,159.65
2018-12-10T23:54:22.055Z,157.52
2018-12-10T23:57:18.536Z,161.73
